Time;durP1;ratioP1;P1;durP2;ratioP2;P2;SDS_P1;SDS_P2;PMS_P1;PMS_P2;Temp;Humidity;BMP_temperature;BMP_pressure;BME280_temperature;BME280_humidity;BME280_pressure;Samples;Min_cycle;Max_cycle;Signal;HPM_P1;HPM_P2
2021/11/23 00:01:45;;;;;;;6.20;5.70;;;;;;;1.63;88.22;99699.91;4989350;28;104426;-66
2021/11/23 00:04:33;;;;;;;6.45;5.85;;;;;;;1.52;88.74;99707.06;4990715;28;103024;-62
2021/11/23 00:07:02;;;;;;;6.00;5.60;;;;;;;1.68;88.21;99702.41;5011870;28;102655;-62
2021/11/23 00:09:30;;;;;;;6.30;5.80;;;;;;;1.64;88.40;99708.56;5008994;28;102946;-61
2021/11/23 00:11:58;;;;;;;6.32;5.82;;;;;;;1.47;88.63;99708.06;4990588;28;103361;-61
2021/11/23 00:14:27;;;;;;;6.30;5.80;;;;;;;1.49;88.32;99717.56;5009411;28;103261;-62
2021/11/23 00:16:55;;;;;;;5.95;5.45;;;;;;;1.63;89.02;99718.13;4988595;28;103040;-62
2021/11/23 00:19:24;;;;;;;6.28;5.72;;;;;;;1.43;89.02;99712.44;5011803;28;102864;-62
2021/11/23 00:21:52;;;;;;;6.53;6.00;;;;;;;1.40;89.19;99722.97;5011990;28;102986;-61
2021/11/23 00:24:20;;;;;;;6.35;5.82;;;;;;;1.29;89.73;99717.09;5010905;28;103213;-62
2021/11/23 00:26:48;;;;;;;6.32;5.85;;;;;;;1.30;89.46;99716.19;5006680;28;102570;-62
2021/11/23 00:29:17;;;;;;;6.50;6.00;;;;;;;1.43;89.89;99716.84;4994212;28;102774;-61
2021/11/23 00:31:46;;;;;;;6.70;6.20;;;;;;;1.35;89.48;99714.34;4997043;28;103880;-65
2021/11/23 00:34:14;;;;;;;6.80;6.30;;;;;;;1.32;89.49;99713.56;4988647;28;103220;-65
2021/11/23 00:36:42;;;;;;;6.10;5.70;;;;;;;1.43;89.42;99715.06;4990796;28;102643;-65
2021/11/23 00:39:10;;;;;;;7.40;6.70;;;;;;;1.37;89.31;99711.75;5012159;28;102638;-66
2021/11/23 00:41:38;;;;;;;7.28;6.68;;;;;;;1.21;89.76;99711.16;4985463;28;104448;-65
2021/11/23 00:44:07;;;;;;;6.70;6.22;;;;;;;1.22;90.13;99715.47;5007849;28;103483;-65
2021/11/23 00:46:37;;;;;;;6.87;6.27;;;;;;;1.20;90.21;99719.88;4987263;28;102647;-65
2021/11/23 00:49:06;;;;;;;7.10;6.50;;;;;;;1.26;89.86;99713.69;5009625;28;103826;-65
2021/11/23 00:51:34;;;;;;;7.27;6.67;;;;;;;1.33;89.76;99717.88;5010901;28;103198;-65
2021/11/23 00:54:03;;;;;;;6.80;6.30;;;;;;;1.52;88.73;99721.84;5011285;28;103248;-65
2021/11/23 00:56:31;;;;;;;7.10;6.53;;;;;;;1.28;89.00;99723.19;5006762;28;103012;-66
2021/11/23 00:58:59;;;;;;;7.15;6.55;;;;;;;1.29;89.15;99718.84;4995842;28;102989;-66
2021/11/23 01:01:27;;;;;;;6.95;6.25;;;;;;;1.38;88.80;99722.09;5013345;28;103510;-66
2021/11/23 01:03:56;;;;;;;6.63;6.13;;;;;;;1.33;88.56;99734.38;5010120;28;103525;-66
2021/11/23 01:06:25;;;;;;;7.20;6.60;;;;;;;1.44;89.00;99729.81;5015211;28;102729;-66
2021/11/23 01:08:53;;;;;;;6.90;6.30;;;;;;;1.38;88.63;99726.47;5014687;28;103870;-66
2021/11/23 01:11:22;;;;;;;7.20;6.63;;;;;;;1.31;88.54;99727.47;4990169;28;104102;-66
2021/11/23 01:13:50;;;;;;;7.15;6.57;;;;;;;1.25;88.76;99731.06;5014662;28;103209;-65
2021/11/23 01:16:18;;;;;;;7.35;6.75;;;;;;;1.22;89.23;99732.84;4992420;28;102686;-66
2021/11/23 01:18:47;;;;;;;7.77;7.17;;;;;;;1.11;89.34;99733.06;5010321;28;102755;-66
2021/11/23 01:21:15;;;;;;;7.18;6.68;;;;;;;1.14;89.42;99733.00;5012639;28;104490;-62
2021/11/23 01:23:45;;;;;;;7.63;6.95;;;;;;;1.07;90.09;99740.03;5010519;28;103959;-63
2021/11/23 01:26:15;;;;;;;7.70;7.03;;;;;;;1.21;89.14;99745.00;5013939;28;102773;-62
2021/11/23 01:28:43;;;;;;;7.00;6.50;;;;;;;1.43;88.64;99743.72;4995314;28;102641;-62
2021/11/23 01:31:11;;;;;;;7.07;6.50;;;;;;;1.28;88.60;99744.00;5009775;28;104079;-61
2021/11/23 01:33:39;;;;;;;6.75;6.20;;;;;;;1.38;88.21;99749.88;5012875;28;102806;-62
2021/11/23 01:36:07;;;;;;;7.40;6.70;;;;;;;1.24;89.13;99750.16;5010143;28;102872;-63
2021/11/23 01:38:35;;;;;;;7.50;7.00;;;;;;;1.22;89.14;99756.28;5011397;28;104442;-62
2021/11/23 01:41:04;;;;;;;7.55;6.95;;;;;;;1.24;88.93;99751.88;5011175;28;103252;-62
2021/11/23 01:43:32;;;;;;;7.07;6.43;;;;;;;1.46;88.82;99750.63;4993879;28;103262;-62
2021/11/23 01:46:04;;;;;;;7.13;6.53;;;;;;;1.42;88.02;99746.34;4992260;28;102923;-62
2021/11/23 01:48:34;;;;;;;7.43;6.72;;;;;;;1.45;87.96;99752.38;5012088;28;102948;-61
2021/11/23 01:51:05;;;;;;;7.47;6.88;;;;;;;1.45;87.78;99741.09;5011387;28;103208;-65
2021/11/23 01:53:33;;;;;;;7.75;7.13;;;;;;;1.55;87.14;99743.47;4998502;28;103398;-66
2021/11/23 01:56:01;;;;;;;7.70;7.10;;;;;;;1.16;88.80;99744.22;5006985;28;102876;-61
2021/11/23 01:58:31;;;;;;;7.65;7.10;;;;;;;0.97;89.25;99748.03;5013232;28;103887;-61
2021/11/23 02:00:59;;;;;;;8.00;7.40;;;;;;;1.05;89.35;99753.97;4984234;28;103382;-62
2021/11/23 02:03:29;;;;;;;8.10;7.40;;;;;;;1.09;89.10;99753.91;5012305;28;103278;-62
2021/11/23 02:05:57;;;;;;;7.75;7.15;;;;;;;1.12;88.73;99747.78;5011862;28;102943;-62
2021/11/23 02:08:25;;;;;;;7.65;7.05;;;;;;;1.04;88.97;99752.25;4988358;28;102912;-62
2021/11/23 02:10:53;;;;;;;7.72;7.13;;;;;;;1.08;89.21;99761.72;5011956;28;103285;-62
2021/11/23 02:13:23;;;;;;;7.43;6.93;;;;;;;1.13;88.89;99754.69;5013201;28;103224;-61
2021/11/23 02:15:54;;;;;;;7.95;7.28;;;;;;;1.04;88.52;99744.44;5012941;28;102561;-66
2021/11/23 02:18:24;;;;;;;7.65;7.05;;;;;;;0.98;89.25;99747.19;5007038;28;104071;-66
2021/11/23 02:20:54;;;;;;;8.20;7.50;;;;;;;0.94;90.04;99746.38;4995579;28;103235;-66
2021/11/23 02:23:25;;;;;;;7.83;7.23;;;;;;;1.02;89.40;99752.28;5012852;28;103228;-66
2021/11/23 02:25:53;;;;;;;7.20;6.60;;;;;;;1.41;88.44;99744.63;5009253;28;103325;-66
2021/11/23 02:28:24;;;;;;;7.70;7.10;;;;;;;1.12;88.68;99745.19;5009880;28;103745;-67
2021/11/23 02:30:55;;;;;;;8.07;7.43;;;;;;;1.18;87.99;99745.06;4992503;28;102973;-66
2021/11/23 02:33:25;;;;;;;7.72;7.13;;;;;;;1.09;88.95;99742.63;5008943;28;103241;-66
2021/11/23 02:35:57;;;;;;;8.40;7.70;;;;;;;1.01;88.86;99742.75;5008369;28;102637;-66
2021/11/23 02:38:26;;;;;;;7.47;6.88;;;;;;;1.23;88.37;99745.84;5011906;28;104037;-66
2021/11/23 02:40:54;;;;;;;8.38;7.68;;;;;;;1.10;88.24;99744.34;5010136;28;103286;-66
2021/11/23 02:43:23;;;;;;;7.80;7.20;;;;;;;1.16;87.57;99749.44;5014316;28;102971;-66
2021/11/23 02:45:52;;;;;;;7.90;7.30;;;;;;;1.24;87.11;99754.50;4988434;28;102730;-62
2021/11/23 02:48:21;;;;;;;8.47;7.77;;;;;;;1.06;88.42;99753.09;5009483;28;102665;-63
2021/11/23 02:50:57;;;;;;;8.27;7.50;;;;;;;1.06;89.03;99759.16;5010659;28;104222;-62
2021/11/23 02:53:27;;;;;;;7.60;7.00;;;;;;;1.39;87.03;99756.81;4994747;28;103275;-62
2021/11/23 02:55:55;;;;;;;8.07;7.57;;;;;;;1.14;88.18;99761.63;5014170;28;102787;-66
2021/11/23 02:58:23;;;;;;;8.43;7.73;;;;;;;1.18;87.71;99758.06;5011104;28;102926;-66
2021/11/23 03:00:51;;;;;;;8.02;7.43;;;;;;;0.97;89.02;99763.66;5004527;28;104306;-66
2021/11/23 03:03:22;;;;;;;8.77;7.97;;;;;;;0.89;89.30;99769.00;5010671;28;102820;-66
2021/11/23 03:05:53;;;;;;;8.70;7.97;;;;;;;1.06;88.82;99753.97;5010777;28;102680;-66
2021/11/23 03:08:21;;;;;;;8.45;7.75;;;;;;;1.11;87.80;99756.47;5008388;28;103830;-67
2021/11/23 03:10:51;;;;;;;8.90;8.20;;;;;;;1.15;87.64;99758.16;5006042;28;103188;-66
2021/11/23 03:13:20;;;;;;;8.15;7.40;;;;;;;1.62;85.82;99749.44;5011083;28;103264;-66
2021/11/23 03:15:48;;;;;;;6.23;5.63;;;;;;;0.87;88.99;99752.53;5012872;28;102700;-66
2021/11/23 03:18:16;;;;;;;7.20;5.93;;;;;;;0.53;90.43;99760.03;5012747;28;102679;-66
2021/11/23 03:20:45;;;;;;;7.20;6.13;;;;;;;0.68;90.30;99756.31;4986682;28;104406;-66
2021/11/23 03:23:13;;;;;;;6.07;5.47;;;;;;;0.71;90.27;99747.63;5009743;28;103202;-66
2021/11/23 03:25:41;;;;;;;6.83;6.23;;;;;;;0.59;90.08;99751.25;5010707;28;102702;-66
2021/11/23 03:28:11;;;;;;;7.60;6.50;;;;;;;0.49;90.63;99753.16;5013866;28;102968;-66
2021/11/23 03:30:39;;;;;;;7.00;6.30;;;;;;;0.55;91.17;99749.63;5011933;28;103239;-66
2021/11/23 03:33:09;;;;;;;8.00;6.90;;;;;;;0.44;91.32;99754.97;4992016;28;105063;-66
2021/11/23 03:35:39;;;;;;;7.73;7.00;;;;;;;0.49;91.19;99749.69;4993811;28;102887;-61
2021/11/23 03:38:09;;;;;;;7.83;6.53;;;;;;;0.56;91.25;99746.97;4991470;28;104136;-62
2021/11/23 03:40:40;;;;;;;6.93;6.33;;;;;;;0.52;90.52;99755.72;5010498;28;104481;-66
2021/11/23 03:43:13;;;;;;;6.57;5.97;;;;;;;0.72;90.56;99751.94;5007166;28;103241;-66
2021/11/23 03:45:44;;;;;;;7.30;6.60;;;;;;;0.71;90.44;99751.06;5010968;28;102913;-66
2021/11/23 03:48:12;;;;;;;6.87;6.17;;;;;;;0.77;90.53;99757.94;5008044;28;102647;-66
2021/11/23 03:50:41;;;;;;;7.43;6.73;;;;;;;0.89;89.93;99755.13;4993504;28;103312;-66
2021/11/23 03:53:09;;;;;;;7.13;6.40;;;;;;;0.90;89.49;99756.84;5014169;28;102992;-66
2021/11/23 03:55:38;;;;;;;9.07;6.83;;;;;;;0.94;89.07;99758.50;5007912;28;102680;-66
2021/11/23 03:58:06;;;;;;;7.53;6.80;;;;;;;0.79;88.45;99753.53;5010815;28;102648;-67
2021/11/23 04:00:36;;;;;;;7.40;6.70;;;;;;;0.40;91.51;99758.50;5011233;28;103820;-66
2021/11/23 04:03:04;;;;;;;7.53;6.83;;;;;;;0.28;91.28;99763.03;5011595;28;103306;-66
2021/11/23 04:05:32;;;;;;;8.60;7.80;;;;;;;0.38;91.80;99755.06;5006823;28;102684;-66
2021/11/23 04:08:02;;;;;;;8.30;7.50;;;;;;;0.32;91.25;99751.69;5012082;28;102740;-66
2021/11/23 04:10:30;;;;;;;8.50;7.60;;;;;;;0.11;92.44;99759.81;5010967;28;103207;-66
2021/11/23 04:12:58;;;;;;;9.43;7.77;;;;;;;0.03;93.26;99754.69;5012756;28;103232;-66
2021/11/23 04:15:29;;;;;;;8.93;8.03;;;;;;;-0.02;93.87;99751.31;4988321;28;102629;-66
2021/11/23 04:17:58;;;;;;;11.23;8.53;;;;;;;-0.14;94.57;99767.06;4988784;28;103166;-66
2021/11/23 04:20:27;;;;;;;9.63;7.97;;;;;;;-0.17;94.22;99767.09;4989533;28;103282;-62
2021/11/23 04:22:55;;;;;;;8.67;7.80;;;;;;;-0.24;95.29;99765.44;4990734;28;103218;-62
2021/11/23 04:25:23;;;;;;;11.53;8.20;;;;;;;-0.22;94.71;99763.69;5008135;28;102640;-62
2021/11/23 04:27:51;;;;;;;;;;;;;;;-0.21;94.54;99762.81;5011235;28;103898;-62
2021/11/23 04:30:19;;;;;;;;;;;;;;;-0.15;94.56;99763.59;5007708;28;103235;-62
2021/11/23 04:32:47;;;;;;;;;;;;;;;-0.10;94.58;99755.75;5012639;28;103080;-62
2021/11/23 04:35:16;;;;;;;;;;;;;;;-0.07;93.96;99760.91;5013752;28;102575;-62
2021/11/23 04:37:45;;;;;;;;;;;;;;;-0.26;94.32;99755.09;5016217;28;102720;-62
2021/11/23 04:40:14;;;;;;;;;;;;;;;-0.30;94.97;99757.72;5009683;28;103374;-62
2021/11/23 04:42:44;;;;;;;;;;;;;;;-0.38;95.32;99756.97;5012664;28;102938;-62
2021/11/23 04:45:13;;;;;;;;;;;;;;;-0.41;95.52;99765.66;5015321;28;102824;-62
2021/11/23 04:47:41;;;;;;;;;;;;;;;-0.43;95.57;99769.16;5012762;28;103910;-62
2021/11/23 04:50:10;;;;;;;;;;;;;;;-0.42;95.24;99766.50;5011577;28;104025;-62
2021/11/23 04:52:39;;;;;;;;;;;;;;;-0.40;95.45;99766.50;5011195;28;103178;-62
2021/11/23 04:55:08;;;;;;;;;;;;;;;-0.32;95.68;99767.28;5014994;28;102618;-62
2021/11/23 04:57:35;;;;;;;;;;;;;;;-0.42;95.52;99766.50;5011892;28;102813;-61
2021/11/23 05:00:04;;;;;;;;;;;;;;;-0.39;95.65;99766.47;4991806;28;103266;-65
2021/11/23 05:02:32;;;;;;;;;;;;;;;-0.47;95.65;99772.63;5009158;28;103172;-64
2021/11/23 05:04:59;;;;;;;;;;;;;;;-0.45;95.49;99781.28;5013039;28;102999;-64
2021/11/23 05:07:27;;;;;;;;;;;;;;;-0.53;95.93;99776.16;5016458;28;104254;-65
2021/11/23 05:09:56;;;;;;;;;;;;;;;-0.53;95.82;99777.94;4996759;28;103449;-64
2021/11/23 05:12:24;;;;;;;;;;;;;;;-0.53;96.05;99777.94;5010797;28;103223;-64
2021/11/23 05:14:52;;;;;;;;;;;;;;;-0.63;96.00;99778.03;5001208;28;102784;-64
2021/11/23 05:17:20;;;;;;;;;;;;;;;-0.63;96.52;99796.19;5014110;28;102695;-64
2021/11/23 05:19:47;;;;;;;;;;;;;;;-0.60;96.34;99793.56;5011663;28;103262;-65
2021/11/23 05:22:15;;;;;;;;;;;;;;;-0.62;96.16;99799.66;5012193;28;103371;-66
2021/11/23 05:24:43;;;;;;;;;;;;;;;-0.58;96.51;99796.13;5010912;28;102613;-66
2021/11/23 05:27:13;;;;;;;;;;;;;;;-0.56;95.90;99798.72;5012925;28;102742;-66
2021/11/23 05:29:41;;;;;;;;;;;;;;;-0.56;95.83;99796.97;5011682;28;103988;-65
2021/11/23 05:32:09;;;;;;;;;;;;;;;-0.55;96.05;99800.44;5014148;28;103163;-66
2021/11/23 05:34:36;;;;;;;;;;;;;;;-0.49;95.50;99801.22;5013801;28;102627;-65
2021/11/23 05:37:04;;;;;;;;;;;;;;;-0.46;95.28;99795.13;5013077;28;103015;-65
2021/11/23 05:39:32;;;;;;;;;;;;;;;-0.57;95.16;99797.00;5012558;28;103228;-65
2021/11/23 05:42:00;;;;;;;;;;;;;;;-0.56;95.55;99788.34;4992621;28;103249;-65
2021/11/23 05:44:30;;;;;;;;;;;;;;;-0.34;95.69;99792.41;5010183;28;103026;-65
2021/11/23 05:46:57;;;;;;;;;;;;;;;-0.26;94.08;99790.59;5008102;28;102805;-66
2021/11/23 05:49:25;;;;;;;;;;;;;;;-0.42;94.39;99797.69;5007002;28;103330;-66
2021/11/23 05:51:54;;;;;;;;;;;;;;;-0.54;95.12;99802.16;5017128;28;103214;-65
2021/11/23 05:54:22;;;;;;;;;;;;;;;-0.53;95.42;99796.94;4996628;28;102683;-66
2021/11/23 05:56:50;;;;;;;;;;;;;;;-0.56;94.91;99798.72;5010232;28;102953;-65
2021/11/23 05:59:22;;;;;;;;;;;;;;;-0.53;95.06;99796.94;4986156;28;103451;-65
2021/11/23 06:01:51;;;;;;;;;;;;;;;-0.58;94.38;99801.31;5000510;28;103150;-65
2021/11/23 06:04:19;;;;;;;;;;;;;;;-0.65;95.52;99804.88;4990686;28;102743;-66
2021/11/23 06:06:46;;;;;;;;;;;;;;;-0.74;95.94;99807.53;5008819;28;104047;-65
2021/11/23 06:09:16;;;;;;;;;;;;;;;-0.69;96.00;99809.22;4992055;28;104054;-62
2021/11/23 06:11:44;;;;;;;;;;;;;;;-0.63;95.83;99803.97;5006126;28;103181;-62
2021/11/23 06:14:12;;;;;;;;;;;;;;;-0.44;95.37;99793.38;4997390;28;103054;-62
2021/11/23 06:16:44;;;;;;;;;;;;;;;-0.29;94.98;99798.41;5004737;28;102791;-62
2021/11/23 06:19:13;;;;;;;;;;;;;;;-0.30;93.47;99791.50;4998719;28;103244;-62
2021/11/23 06:21:43;;;;;;;;;;;;;;;-0.35;94.12;99801.94;4992258;28;103188;-65
2021/11/23 06:24:12;;;;;;;;;;;;;;;-0.31;93.29;99815.75;4999700;28;103066;-65
2021/11/23 06:26:39;;;;;;;;;;;;;;;-0.23;93.16;99819.13;4985747;28;103880;-65
2021/11/23 06:29:08;;;;;;;;;;;;;;;-0.21;93.11;99818.22;5002056;28;103942;-65
2021/11/23 06:31:35;;;;;;;;;;;;;;;-0.18;92.63;99828.59;4990295;28;103187;-65
2021/11/23 06:34:07;;;;;;;;;;;;;;;-0.34;92.08;99826.19;5004186;28;102640;-62
2021/11/23 06:36:36;;;;;;;;;;;;;;;-0.67;94.44;99827.34;5006165;28;102622;-62
2021/11/23 06:39:05;;;;;;;;;;;;;;;-0.69;94.19;99824.78;5001539;28;103332;-64
2021/11/23 06:41:33;;;;;;;;;;;;;;;-0.51;94.04;99839.34;4988564;28;103306;-65
2021/11/23 06:44:03;;;;;;;;;;;;;;;-0.46;93.67;99845.34;4994640;28;103209;-65
2021/11/23 06:46:31;;;;;;;;;;;;;;;-0.59;94.37;99847.19;4997026;28;104020;-65
2021/11/23 06:49:00;;;;;;;;;;;;;;;-0.51;94.81;99844.53;5001928;28;103285;-65
2021/11/23 06:51:28;;;;;;;;;;;;;;;-0.29;94.67;99853.81;5005366;28;103181;-65
2021/11/23 06:53:57;;;;;;;;;;;;;;;-0.18;93.92;99858.91;4989787;28;103207;-63
2021/11/23 06:56:25;;;;;;;;;;;;;;;-0.15;92.58;99864.06;4999326;28;102985;-65
2021/11/23 06:58:55;;;;;;;;;;;;;;;-0.29;90.65;99871.13;5000837;28;103301;-62
2021/11/23 07:01:24;;;;;;;;;;;;;;;-0.30;91.70;99869.41;5003171;28;103317;-63
2021/11/23 07:03:52;;;;;;;;;;;;;;;-0.22;91.40;99872.78;5008075;28;102732;-62
2021/11/23 07:06:20;;;;;;;;;;;;;;;-0.28;91.81;99867.66;5005892;28;102752;-62
2021/11/23 07:08:48;;;;;;;;;;;;;;;-0.20;92.33;99876.25;5001828;28;103201;-62
2021/11/23 07:11:17;;;;;;;;;;;;;;;-0.07;92.13;99872.63;5004998;28;103230;-63
2021/11/23 07:13:46;;;;;;;;;;;;;;;0.02;91.54;99869.94;5001032;28;103210;-62
2021/11/23 07:16:14;;;;;;;;;;;;;;;0.05;91.17;99877.69;5000019;28;102743;-62
2021/11/23 07:18:42;;;;;;;;;;;;;;;0.25;91.70;99873.13;5005900;28;103637;-62
2021/11/23 07:21:10;;;;;;;;;;;;;;;0.03;91.27;99876.81;5006626;28;103230;-62
2021/11/23 07:23:56;;;;;;;;;;;;;;;0.31;91.21;99872.19;5005492;28;104218;-62
2021/11/23 07:26:26;;;;;;;;;;;;;;;0.49;91.04;99872.78;5006879;28;103995;-62
2021/11/23 07:28:56;;;;;;;;;;;;;;;0.44;89.79;99882.41;5009313;28;104108;-62
2021/11/23 07:31:24;;;;;;;;;;;;;;;0.78;91.03;99876.72;5006543;28;103144;-62
2021/11/23 07:33:52;;;;;;;;;;;;;;;0.96;89.46;99877.31;5006608;28;102656;-62
2021/11/23 07:36:20;;;;;;;;;;;;;;;1.26;88.22;99881.19;4996866;28;102770;-62
2021/11/23 07:38:48;;;;;;;;;;;;;;;1.49;86.46;99875.56;5002549;28;104548;-63
2021/11/23 07:41:16;;;;;;;;;;;;;;;1.34;86.00;99876.72;5005421;28;103159;-63
2021/11/23 07:43:45;;;;;;;;;;;;;;;1.03;85.49;99884.16;5010914;28;102978;-62
2021/11/23 07:46:13;;;;;;;;;;;;;;;0.96;87.29;99898.13;4988234;28;102737;-62
2021/11/23 07:48:41;;;;;;;;;;;;;;;1.39;87.30;99895.72;5006262;28;103274;-62
2021/11/23 07:51:09;;;;;;;;;;;;;;;1.85;85.32;99889.69;5007472;28;103192;-62
2021/11/23 07:53:39;;;;;;;;;;;;;;;1.67;84.74;99889.16;5007877;28;102728;-62
2021/11/23 07:56:07;;;;;;;;;;;;;;;1.72;86.19;99896.88;5009096;28;102913;-62
2021/11/23 07:58:35;;;;;;;;;;;;;;;1.55;85.76;99894.56;5007885;28;103851;-62
2021/11/23 08:01:08;;;;;;;;;;;;;;;1.77;86.07;99901.09;4992470;28;103527;-63
2021/11/23 08:03:36;;;;;;;;;;;;;;;2.77;82.43;99888.66;4986033;28;102712;-63
2021/11/23 08:06:04;;;;;;;;;;;;;;;2.26;81.01;99897.56;5008955;27;102685;-62
2021/11/23 08:08:32;;;;;;;;;;;;;;;1.89;84.31;99894.81;5014218;28;103931;-62
2021/11/23 08:11:00;;;;;;;;;;;;;;;1.45;85.46;99898.22;5015049;28;103226;-63
2021/11/23 08:13:28;;;;;;;;;;;;;;;1.48;85.39;99900.78;5014630;28;102671;-63
2021/11/23 08:15:56;;;;;;;;;;;;;;;1.29;86.69;99907.19;5011548;28;103955;-62
2021/11/23 08:18:25;;;;;;;;;;;;;;;1.49;86.06;99899.88;5015037;28;103193;-62
2021/11/23 08:20:53;;;;;;;;;;;;;;;2.04;84.42;99904.09;5008705;28;102716;-62
2021/11/23 08:23:21;;;;;;;;;;;;;;;1.80;84.05;99915.00;5005530;28;102752;-62
2021/11/23 08:25:48;;;;;;;;;;;;;;;1.86;84.64;99910.50;5011930;28;103924;-63
2021/11/23 08:28:18;;;;;;;;;;;;;;;1.83;83.94;99917.50;4995303;28;104019;-62
2021/11/23 08:30:47;;;;;;;;;;;;;;;2.29;83.01;99915.78;5012184;28;103159;-63
2021/11/23 08:33:15;;;;;;;;;;;;;;;1.92;84.03;99915.63;5000314;28;102751;-63
2021/11/23 08:35:44;;;;;;;;;;;;;;;1.82;84.29;99915.81;5011345;28;102818;-65
2021/11/23 08:38:12;;;;;;;;;;;;;;;2.28;84.72;99911.44;5010009;28;104317;-62
2021/11/23 08:40:42;;;;;;;;;;;;;;;2.25;83.16;99914.97;5007063;28;103131;-65
2021/11/23 08:43:10;;;;;;;;;;;;;;;2.09;82.61;99915.28;4993259;28;102775;-64
2021/11/23 08:45:39;;;;;;;;;;;;;;;2.26;82.79;99916.69;5009073;28;102843;-65
2021/11/23 08:48:07;;;;;;;;;;;;;;;2.24;83.16;99917.63;5009163;28;103240;-65
2021/11/23 08:50:35;;;;;;;;;;;;;;;2.20;81.11;99915.94;5009317;28;102643;-64
2021/11/23 08:53:07;;;;;;;;;;;;;;;2.82;81.29;99918.13;5009888;28;102708;-65
2021/11/23 08:55:35;;;;;;;;;;;;;;;1.96;82.18;99912.06;5005873;28;104789;-65
2021/11/23 08:58:06;;;;;;;;;;;;;;;2.74;80.86;99919.19;5005037;28;103744;-65
2021/11/23 09:00:35;;;;;;;;;;;;;;;3.04;81.85;99907.19;4989115;28;103165;-65
2021/11/23 09:03:03;;;;;;;;;;;;;;;3.69;78.01;99914.31;5011775;28;102617;-65
2021/11/23 09:05:32;;;;;;;;;;;;;;;2.65;78.55;99914.16;5005695;28;102815;-65
2021/11/23 09:08:02;;;;;;;;;;;;;;;2.55;78.99;99913.50;5011246;28;103283;-65
2021/11/23 09:10:33;;;;;;;;;;;;;;;2.82;80.04;99914.66;4999974;28;103293;-65
2021/11/23 09:13:01;;;;;;;;;;;;;;;2.89;80.93;99909.25;4993956;28;102736;-65
2021/11/23 09:15:30;;;;;;;;;;;;;;;3.31;78.03;99911.78;5006417;28;102977;-65
2021/11/23 09:18:01;;;;;;;;;;;;;;;3.33;77.99;99910.00;5003987;28;103224;-65
2021/11/23 09:20:34;;;;;;;;;;;;;;;3.34;79.06;99911.72;4987671;28;103008;-65
2021/11/23 09:23:02;;;;;;;;;;;;;;;3.82;78.09;99918.31;5005877;28;102738;-65
2021/11/23 09:25:32;;;;;;;;;;;;;;;3.27;77.85;99921.44;5005056;28;102924;-65
2021/11/23 09:28:00;;;;;;;;;;;;;;;3.77;76.57;99919.31;5003841;28;103441;-65
2021/11/23 09:30:29;;;;;;;;;;;;;;;4.21;76.24;99923.41;5001284;28;103159;-64
2021/11/23 09:32:57;;;;;;;;;;;;;;;3.34;76.11;99916.94;5007963;28;102867;-65
2021/11/23 09:35:25;;;;;;;;;;;;;;;2.93;77.47;99923.97;5010987;28;102735;-65
2021/11/23 09:37:55;;;;;;;;;;;;;;;3.62;78.39;99917.94;5009372;28;103209;-65
2021/11/23 09:40:23;;;;;;;;;;;;;;;2.89;78.31;99922.31;5012505;28;103218;-65
2021/11/23 09:42:53;;;;;;;;;;;;;;;3.19;78.61;99927.75;5013942;28;102721;-65
2021/11/23 09:45:22;;;;;;;;;;;;;;;3.39;78.87;99915.94;4991977;28;102647;-65
2021/11/23 09:47:51;;;;;;;;;;;;;;;2.87;79.56;99911.03;5002888;28;103240;-65
2021/11/23 09:50:19;;;;;;;;;;;;;;;2.98;79.27;99917.75;5010798;28;103165;-64
2021/11/23 09:52:47;;;;;;;;;;;;;;;3.68;77.30;99912.56;5017326;28;102612;-64
2021/11/23 09:55:16;;;;;;;;;;;;;;;3.85;76.85;99910.38;5009867;28;102809;-65
2021/11/23 09:57:44;;;;;;;;;;;;;;;4.24;76.62;99907.63;5007828;28;103199;-64
2021/11/23 10:00:30;;;;;;;;;;;;;;;4.20;75.94;99909.44;5001766;28;103040;-65
2021/11/23 10:03:08;;;;;;;;;;;;;;;4.55;74.95;99904.06;5013228;28;102543;-64
2021/11/23 10:05:38;;;;;;;;;;;;;;;4.77;73.88;99899.06;5014045;28;102745;-64
2021/11/23 10:08:11;;;;;;;;;;;;;;;4.85;74.20;99897.09;5019280;28;103990;-65
2021/11/23 10:10:44;;;;;;;;;;;;;;;4.95;74.14;99888.03;5015514;28;103157;-65
2021/11/23 10:13:12;;;;;;;;;;;;;;;5.32;72.37;99886.88;4992093;28;102721;-65
2021/11/23 10:15:45;;;;;;;;;;;;;;;4.55;71.80;99882.25;5008680;28;102630;-64
2021/11/23 10:18:21;;;;;;;;;;;;;;;3.68;75.46;99891.66;5008494;28;103729;-65
2021/11/23 10:20:49;;;;;;;;;;;;;;;4.93;73.97;99881.13;5013950;28;103051;-65
2021/11/23 10:23:19;;;;;;;;;;;;;;;5.48;71.02;99880.19;5010872;28;102942;-64
2021/11/23 10:25:48;;;;;;;;;;;;;;;5.55;71.27;99879.09;5009351;28;102614;-64
2021/11/23 10:28:17;;;;;;;;;;;;;;;5.45;71.14;99869.81;5013001;28;103158;-64
2021/11/23 10:30:46;;;;;;;;;;;;;;;5.66;70.70;99866.50;4991787;28;103169;-64
2021/11/23 10:33:17;;;;;;;;;;;;;;;6.02;69.67;99870.50;5011420;28;102561;-64
2021/11/23 10:35:48;;;;;;;;;;;;;;;5.77;70.40;99864.34;5011893;28;104019;-64
2021/11/23 10:38:16;;;;;;;;;;;;;;;6.29;68.93;99864.25;5008776;28;102945;-64
2021/11/23 10:40:45;;;;;;;;;;;;;;;6.15;66.79;99861.25;5008114;28;103136;-64
2021/11/23 10:43:16;;;;;;;;;;;;;;;5.99;67.96;99865.34;5009318;28;102940;-64
2021/11/23 10:45:45;;;;;;;;;;;;;;;5.72;67.75;99861.91;5013625;28;103909;-65
2021/11/23 10:48:14;;;;;;;;;;;;;;;5.49;70.25;99858.34;5009553;28;103219;-64
2021/11/23 10:50:43;;;;;;;;;;;;;;;6.17;68.21;99859.47;5011411;28;103199;-64
2021/11/23 10:53:13;;;;;;;;;;;;;;;6.92;67.27;99854.84;5014923;28;102806;-64
2021/11/23 10:55:44;;;;;;;;;;;;;;;6.68;65.99;99850.56;4993302;28;102745;-64
2021/11/23 10:58:13;;;;;;;;;;;;;;;7.16;66.23;99847.75;5014730;28;103243;-64
2021/11/23 11:00:44;;;;;;;;;;;;;;;6.43;65.31;99856.72;5013775;28;103153;-64
2021/11/23 11:03:16;;;;;;;;;;;;;;;7.30;64.58;99851.53;5011861;28;103016;-65
2021/11/23 11:05:45;;;;;;;;;;;;;;;7.71;61.79;99854.22;5012091;28;102633;-64
2021/11/23 11:08:15;;;;;;;;;;;;;;;6.65;65.58;99845.41;5011759;28;103290;-65
2021/11/23 11:10:48;;;;;;;;;;;;;;;6.95;65.03;99846.84;5000413;28;104118;-63
2021/11/23 11:13:20;;;;;;;;;;;;;;;6.57;66.79;99850.09;5012863;28;102723;-64
2021/11/23 11:15:50;;;;;;;;;;;;;;;6.82;66.16;99843.00;5012161;28;102968;-63
2021/11/23 11:18:19;;;;;;;;;;;;;;;7.29;65.55;99839.31;5011295;28;103873;-63
2021/11/23 11:20:49;;;;;;;;;;;;;;;7.27;65.44;99837.66;5002548;28;103182;-63
2021/11/23 11:23:23;;;;;;;;;;;;;;;7.96;62.68;99841.72;5008391;28;102792;-64
2021/11/23 11:25:54;;;;;;;;;;;;;;;7.60;63.22;99838.88;4988049;28;102762;-64
2021/11/23 11:28:36;;;;;;;;;;;;;;;8.33;61.13;99830.44;5012722;28;103362;-64
2021/11/23 11:31:07;;;;;;;;;;;;;;;8.07;59.36;99826.28;5011332;28;103136;-63
2021/11/23 11:33:35;;;;;;;;;;;;;;;7.47;59.34;99822.75;5010943;28;102581;-64
2021/11/23 11:36:04;;;;;;;;;;;;;;;7.89;61.55;99819.19;4998595;28;102794;-64
2021/11/23 11:38:40;;;;;;;;;;;;;;;8.56;60.50;99810.00;5012750;28;103222;-62
2021/11/23 11:41:28;;;;;;;;;;;;;;;8.71;58.85;99816.31;5012472;28;103264;-62
2021/11/23 11:44:06;;;;;;;;;;;;;;;8.83;58.96;99809.63;5008306;28;102686;-62
2021/11/23 11:46:37;;;;;;;;;;;;;;;9.11;58.37;99805.59;5011222;28;102761;-62
2021/11/23 11:49:05;;;;;;;;;;;;;;;9.74;57.72;99816.50;4997642;28;104103;-62
2021/11/23 11:51:40;;;;;;;;;;;;;;;8.57;58.71;99814.34;5009390;28;103371;-63
2021/11/23 11:54:19;;;;;;;;;;;;;;;7.41;61.39;99823.00;5010986;28;102675;-62
2021/11/23 11:56:49;;;;;;;;;;;;;;;8.66;60.00;99813.91;5013425;28;103806;-62
2021/11/23 11:59:30;;;;;;;;;;;;;;;7.49;60.38;99810.38;5010999;28;103570;-62
2021/11/23 12:02:01;;;;;;;;;;;;;;;7.27;60.59;99827.16;4993992;28;103194;-62
2021/11/23 12:04:32;;;;;;;;;;;;;;;6.77;62.09;99813.41;5010989;28;102593;-63
2021/11/23 12:07:09;;;;;;;;;;;;;;;6.80;63.00;99808.03;5015857;28;102672;-63
2021/11/23 12:09:44;;;;;;;;;;;;;;;7.26;61.18;99813.16;5010760;28;104399;-62
2021/11/23 12:12:33;;;;;;;;;;;;;;;7.82;60.51;99801.97;5011788;28;103157;-63
2021/11/23 12:15:08;;;;;;;;;;;;;;;7.78;60.87;99800.38;5009602;28;102712;-63
2021/11/23 12:17:42;;;;;;;;;;;;;;;7.58;61.05;99804.75;5014071;28;102658;-62
2021/11/23 12:20:15;;;;;;;;;;;;;;;7.21;60.34;99799.34;5009218;28;103216;-63
2021/11/23 12:22:44;;;;;;;;;;;;;;;7.33;60.95;99801.44;5008689;28;103038;-63
2021/11/23 12:25:18;;;;;;;;;;;;;;;7.29;60.58;99792.00;5009250;28;102742;-64
2021/11/23 12:27:47;;;;;;;;;;;;;;;7.51;59.98;99787.53;5010674;28;102614;-65